KGPT

Gulfport-Biloxi International

Airport
ICAO code
KGPT
IATA Code
GPT
Summary
ICAO Region
NAM
ICAO Territory
Location

Gulfport, Mississippi

Serving
Gulfport
Elevation
28 ft
Coordinates
30° 24' 48" N , 89° 4' 23" W
KCC
Airport BS
Bird Strike
Airport WX
Cumulonimbus
Metar
KGPT 191212Z 00000KT 6SM BR OVC031 22/21 A3006 RMK AO2 T02220211

Gulfport-Biloxi International Airport is a joint civil-military public use airport located 3 nm northeast of the central business district of Gulfport, a city in Harrison County, Mississippi, USA.

Airport map

Aerial View

SKYbrary Partners:

Safety knowledge contributed by: